createdAt,value
2017-10-11T00:07:20.178Z,1010.3
2017-10-11T00:17:34.437Z,1010.3
2017-10-11T00:27:48.713Z,1010.2
2017-10-11T00:38:02.902Z,1010.3
2017-10-11T00:48:15.140Z,1010.1
2017-10-11T00:58:29.283Z,1010.2
2017-10-11T01:08:43.480Z,1010.2
2017-10-11T01:19:28.017Z,1010.2
2017-10-11T01:29:41.508Z,1010.2
2017-10-11T01:40:27.230Z,1010.1
2017-10-11T01:50:38.765Z,1010.2
2017-10-11T02:00:50.720Z,1010.1
2017-10-11T02:11:02.174Z,1010.1
2017-10-11T02:21:49.900Z,1009.9
2017-10-11T02:32:03.884Z,1009.9
2017-10-11T02:42:18.457Z,1009.8
2017-10-11T02:52:30.497Z,1009.8
2017-10-11T03:02:44.876Z,1009.8
2017-10-11T03:12:59.062Z,1009.7
2017-10-11T03:23:13.178Z,1009.7
2017-10-11T03:33:27.415Z,1009.6
2017-10-11T03:43:39.398Z,1009.6
2017-10-11T03:53:53.677Z,1009.7
2017-10-11T04:04:38.615Z,1009.7
2017-10-11T04:15:12.507Z,1009.6
2017-10-11T04:25:26.791Z,1009.5
2017-10-11T04:36:11.784Z,1009.5
2017-10-11T04:46:56.654Z,1009.4
2017-10-11T04:57:12.721Z,1009.4
2017-10-11T05:08:07.025Z,1009.4
2017-10-11T05:19:17.722Z,1009.6
2017-10-11T05:29:31.518Z,1009.6
2017-10-11T05:39:45.947Z,1009.7
2017-10-11T05:50:00.322Z,1009.8
2017-10-11T06:00:14.161Z,1009.9
2017-10-11T06:10:25.436Z,1010.0
2017-10-11T06:20:39.648Z,1010.1
2017-10-11T06:31:34.369Z,1010.0
2017-10-11T06:41:52.386Z,1010.1
2017-10-11T06:52:06.782Z,1010.1
2017-10-11T07:14:12.377Z,1010.2
2017-10-11T07:24:26.318Z,1010.3
2017-10-11T07:34:43.778Z,1010.4
2017-10-11T07:45:32.574Z,1010.5
2017-10-11T07:55:47.139Z,1010.5
2017-10-11T08:06:01.398Z,1010.6
2017-10-11T08:16:46.757Z,1010.6
2017-10-11T08:27:00.967Z,1010.7
2017-10-11T08:37:19.418Z,1010.7
2017-10-11T08:48:04.583Z,1010.7
2017-10-11T08:58:16.288Z,1010.7
2017-10-11T09:08:31.087Z,1010.7
2017-10-11T09:19:16.525Z,1010.7
2017-10-11T09:29:30.922Z,1010.7
2017-10-11T09:40:43.750Z,1010.7
2017-10-11T09:50:57.574Z,1010.7
2017-10-11T10:01:11.841Z,1010.8
2017-10-11T10:11:26.074Z,1010.6
2017-10-11T10:22:13.764Z,1010.6
2017-10-11T10:32:27.853Z,1010.6
2017-10-11T10:42:42.089Z,1010.6
2017-10-11T10:52:57.344Z,1010.4
2017-10-11T11:03:41.822Z,1010.5
2017-10-11T11:13:55.487Z,1010.3
2017-10-11T11:25:11.923Z,1010.3
2017-10-11T11:35:26.632Z,1010.1
2017-10-11T11:45:38.681Z,1010.0
2017-10-11T11:55:56.124Z,1009.8
2017-10-11T12:06:10.469Z,1009.8
2017-10-11T12:16:27.963Z,1009.7
2017-10-11T12:26:41.644Z,1009.7
2017-10-11T12:36:55.997Z,1009.7
2017-10-11T12:47:10.045Z,1009.8
2017-10-11T12:57:24.481Z,1009.6
2017-10-11T13:07:38.575Z,1009.5
2017-10-11T13:17:53.071Z,1009.6
2017-10-11T13:28:06.201Z,1009.5
2017-10-11T13:38:20.539Z,1009.4
2017-10-11T13:48:34.403Z,1009.5
2017-10-11T13:58:49.147Z,1009.3
2017-10-11T14:09:33.364Z,1009.2
2017-10-11T14:19:47.800Z,1009.2
2017-10-11T14:30:05.247Z,1009.1
2017-10-11T14:40:19.211Z,1009.2
2017-10-11T14:50:30.615Z,1009.1
2017-10-11T15:00:44.614Z,1009.0
2017-10-11T15:10:58.815Z,1009.0
2017-10-11T15:21:13.002Z,1009.0
2017-10-11T15:31:57.730Z,1009.0
2017-10-11T15:42:12.157Z,1008.9
2017-10-11T15:52:56.960Z,1008.8
2017-10-11T16:03:11.332Z,1008.9
2017-10-11T16:13:25.201Z,1008.8
2017-10-11T16:23:39.646Z,1008.9
2017-10-11T16:33:54.530Z,1008.9
2017-10-11T16:44:09.024Z,1008.9
2017-10-11T16:54:23.281Z,1008.9
2017-10-11T17:04:37.408Z,1008.8
2017-10-11T17:15:39.561Z,1009.0
2017-10-11T17:26:24.853Z,1008.9
2017-10-11T17:36:39.540Z,1009.1
2017-10-11T17:46:58.555Z,1009.0
2017-10-11T17:57:23.246Z,1009.1
2017-10-11T18:07:54.712Z,1009.0
2017-10-11T18:18:18.864Z,1008.9
2017-10-11T18:28:39.302Z,1008.9
2017-10-11T18:39:03.645Z,1008.7
2017-10-11T18:49:23.181Z,1008.7
2017-10-11T19:00:24.239Z,1008.8
2017-10-11T19:11:24.347Z,1008.5
2017-10-11T19:21:49.299Z,1008.6
2017-10-11T19:32:43.576Z,1008.7
2017-10-11T19:43:17.835Z,1008.6
2017-10-11T19:54:14.492Z,1008.6
2017-10-11T20:04:47.310Z,1008.5
2017-10-11T20:15:50.715Z,1008.5
2017-10-11T20:26:14.275Z,1008.5
2017-10-11T20:37:18.917Z,1008.2
2017-10-11T20:47:33.054Z,1008.3
2017-10-11T20:57:44.918Z,1008.3
2017-10-11T21:07:59.392Z,1008.3
2017-10-11T21:18:15.256Z,1008.3
2017-10-11T21:28:28.833Z,1008.2
2017-10-11T21:38:44.111Z,1008.2
2017-10-11T21:48:58.485Z,1008.3
2017-10-11T21:59:12.536Z,1007.9
2017-10-11T22:09:26.974Z,1007.8
2017-10-11T22:20:12.224Z,1007.6
2017-10-11T22:30:26.475Z,1007.5
2017-10-11T22:40:40.862Z,1007.4
2017-10-11T22:50:54.844Z,1007.4
2017-10-11T23:01:09.115Z,1007.2
2017-10-11T23:11:23.367Z,1007.0
2017-10-11T23:21:34.903Z,1006.8
2017-10-11T23:31:49.064Z,1006.9
2017-10-11T23:42:03.040Z,1007.0
2017-10-11T23:52:17.040Z,1006.8
